createdAt,value
2023-04-18T00:01:55.788Z,3.37
2023-04-18T00:04:42.024Z,2.63
2023-04-18T00:07:28.398Z,3.57
2023-04-18T00:10:15.082Z,3.47
2023-04-18T00:13:03.969Z,2.90
2023-04-18T00:15:50.373Z,3.10
2023-04-18T00:18:37.106Z,2.90
2023-04-18T00:21:25.647Z,3.83
2023-04-18T00:24:12.447Z,4.87
2023-04-18T00:26:58.947Z,8.27
2023-04-18T00:29:47.110Z,4.00
2023-04-18T00:32:33.341Z,6.60
2023-04-18T00:35:20.244Z,7.43
2023-04-18T00:38:06.523Z,4.70
2023-04-18T00:40:52.748Z,4.03
2023-04-18T00:43:39.404Z,4.47
2023-04-18T00:46:26.846Z,3.23
2023-04-18T00:49:13.725Z,3.23
2023-04-18T00:52:00.443Z,3.03
2023-04-18T00:54:47.382Z,3.23
2023-04-18T00:57:34.391Z,4.53
2023-04-18T01:00:21.039Z,2.73
2023-04-18T01:03:10.869Z,2.10
2023-04-18T01:05:58.038Z,3.47
2023-04-18T01:08:45.729Z,4.37
2023-04-18T01:11:32.449Z,3.40
2023-04-18T01:14:20.389Z,2.90
2023-04-18T01:17:08.084Z,6.13
2023-04-18T01:19:56.775Z,3.30
2023-04-18T01:22:43.278Z,4.03
2023-04-18T01:25:30.809Z,5.10
2023-04-18T01:28:17.340Z,3.80
2023-04-18T01:31:03.646Z,3.83
2023-04-18T01:33:49.990Z,4.93
2023-04-18T01:36:36.638Z,3.53
2023-04-18T01:39:23.253Z,3.43
2023-04-18T01:42:10.980Z,5.87
2023-04-18T01:44:57.462Z,3.00
2023-04-18T01:47:44.405Z,5.40
2023-04-18T01:50:30.774Z,6.20
2023-04-18T01:53:17.653Z,6.53
2023-04-18T01:56:04.203Z,7.70
2023-04-18T01:58:51.856Z,7.33
2023-04-18T02:01:38.530Z,4.60
2023-04-18T02:04:25.178Z,7.97
2023-04-18T02:07:11.904Z,8.43
2023-04-18T02:09:58.315Z,8.23
2023-04-18T02:12:44.836Z,9.07
2023-04-18T02:15:32.493Z,6.50
2023-04-18T02:18:18.770Z,11.63
2023-04-18T02:21:05.540Z,6.47
2023-04-18T02:23:52.161Z,6.50
2023-04-18T02:26:38.368Z,5.33
2023-04-18T02:29:24.815Z,8.43
2023-04-18T02:32:12.549Z,6.60
2023-04-18T02:34:59.232Z,5.33
2023-04-18T02:37:45.621Z,4.97
2023-04-18T02:40:31.980Z,5.47
2023-04-18T02:43:18.317Z,7.50
2023-04-18T02:46:04.953Z,4.67
2023-04-18T02:48:52.841Z,6.23
2023-04-18T02:51:39.259Z,13.43
2023-04-18T02:54:25.828Z,10.57
2023-04-18T02:57:12.557Z,12.23
2023-04-18T02:59:58.617Z,10.83
2023-04-18T03:02:45.339Z,5.50
2023-04-18T03:05:33.530Z,5.40
2023-04-18T03:08:20.013Z,6.33
2023-04-18T03:11:06.291Z,7.30
2023-04-18T03:13:52.918Z,8.23
2023-04-18T03:16:39.323Z,7.70
2023-04-18T03:19:25.813Z,11.87
2023-04-18T03:22:14.256Z,16.47
2023-04-18T03:25:01.166Z,11.80
2023-04-18T03:27:47.373Z,7.57
2023-04-18T03:30:33.914Z,8.27
2023-04-18T03:33:20.106Z,7.00
2023-04-18T03:36:06.694Z,8.40
2023-04-18T03:38:54.847Z,6.77
2023-04-18T03:41:40.906Z,7.63
2023-04-18T03:44:27.668Z,5.77
2023-04-18T03:47:14.667Z,6.13
2023-04-18T03:50:01.071Z,5.73
2023-04-18T03:52:47.553Z,6.20
2023-04-18T03:55:35.594Z,19.23
2023-04-18T03:58:23.876Z,11.07
2023-04-18T04:01:10.320Z,9.70
2023-04-18T04:03:56.645Z,12.10
2023-04-18T04:06:43.107Z,8.07
2023-04-18T04:09:29.476Z,7.97
2023-04-18T04:12:18.864Z,10.67
2023-04-18T04:15:05.820Z,6.80
2023-04-18T04:17:52.245Z,7.97
2023-04-18T04:20:38.796Z,7.43
2023-04-18T04:23:25.695Z,7.60
2023-04-18T04:26:12.409Z,7.50
2023-04-18T04:29:01.212Z,6.77
2023-04-18T04:31:48.137Z,10.07
2023-04-18T04:34:35.844Z,7.73
2023-04-18T04:37:22.323Z,6.97
2023-04-18T04:40:09.315Z,10.63
2023-04-18T04:42:56.302Z,13.70
2023-04-18T04:45:44.720Z,10.47
2023-04-18T04:48:31.306Z,9.07
2023-04-18T04:51:17.807Z,15.20
2023-04-18T04:54:03.974Z,9.33
2023-04-18T04:56:51.209Z,7.63
2023-04-18T04:59:37.522Z,10.47
2023-04-18T05:02:25.596Z,10.37
2023-04-18T05:05:12.251Z,8.83
2023-04-18T05:07:59.012Z,8.87
2023-04-18T05:10:46.001Z,12.30
2023-04-18T05:13:32.714Z,15.30
2023-04-18T05:16:19.137Z,6.43
2023-04-18T05:19:06.940Z,8.87
2023-04-18T05:21:53.223Z,9.03
2023-04-18T05:24:40.662Z,7.17
2023-04-18T05:27:28.416Z,10.17
2023-04-18T05:30:15.140Z,9.93
2023-04-18T05:33:01.508Z,7.73
2023-04-18T05:35:49.312Z,9.33
2023-04-18T05:38:35.785Z,9.37
2023-04-18T05:41:23.044Z,8.17
2023-04-18T05:44:09.214Z,9.43
2023-04-18T05:46:55.795Z,11.10
2023-04-18T05:49:42.458Z,9.80
2023-04-18T05:52:30.423Z,6.90
2023-04-18T05:55:16.791Z,11.57
2023-04-18T05:58:03.539Z,9.17
2023-04-18T06:00:50.072Z,10.80
2023-04-18T06:03:37.088Z,10.03
2023-04-18T06:06:24.086Z,10.77
2023-04-18T06:09:12.068Z,9.53
2023-04-18T06:11:58.602Z,9.23
2023-04-18T06:14:44.913Z,7.53
2023-04-18T06:17:31.271Z,9.23
2023-04-18T06:20:17.931Z,9.60
2023-04-18T06:23:04.094Z,7.53
2023-04-18T06:25:51.776Z,8.13
2023-04-18T06:28:37.840Z,7.50
2023-04-18T06:31:24.658Z,10.30
2023-04-18T06:34:11.017Z,10.60
2023-04-18T06:37:04.094Z,12.60
2023-04-18T06:39:51.901Z,8.53
2023-04-18T06:42:41.420Z,9.67
2023-04-18T06:45:28.344Z,8.97
2023-04-18T06:48:15.009Z,7.83
2023-04-18T06:51:01.366Z,5.67
2023-04-18T06:53:48.460Z,8.13
2023-04-18T06:56:36.418Z,6.37
2023-04-18T06:59:24.461Z,6.53
2023-04-18T07:02:10.849Z,7.77
2023-04-18T07:04:57.507Z,11.40
2023-04-18T07:07:44.017Z,9.00
2023-04-18T07:10:30.582Z,6.17
2023-04-18T07:13:16.687Z,9.77
2023-04-18T07:16:04.639Z,8.83
2023-04-18T07:18:51.769Z,7.40
2023-04-18T07:21:40.549Z,8.97
2023-04-18T07:24:27.090Z,5.73
2023-04-18T07:27:13.659Z,6.20
2023-04-18T07:30:00.011Z,11.03
2023-04-18T07:32:48.771Z,13.27
2023-04-18T07:35:35.965Z,10.20
2023-04-18T07:38:22.329Z,8.30
2023-04-18T07:41:08.507Z,7.60
2023-04-18T07:43:55.212Z,8.33
2023-04-18T07:46:41.445Z,7.07
2023-04-18T07:49:29.634Z,7.20
2023-04-18T07:52:15.972Z,6.87
2023-04-18T07:55:02.706Z,5.30
2023-04-18T07:57:50.397Z,8.07
2023-04-18T08:00:37.311Z,6.87
2023-04-18T08:03:24.221Z,8.37
2023-04-18T08:06:12.461Z,6.47
2023-04-18T08:09:03.126Z,7.37
2023-04-18T08:11:49.867Z,7.87
2023-04-18T08:14:35.805Z,6.30
2023-04-18T08:17:22.078Z,6.70
2023-04-18T08:20:09.011Z,6.20
2023-04-18T08:23:06.773Z,6.73
2023-04-18T08:25:55.265Z,13.43
2023-04-18T08:28:42.240Z,10.63
2023-04-18T08:31:31.744Z,9.93
2023-04-18T08:34:18.615Z,6.23
2023-04-18T08:37:05.797Z,6.60
2023-04-18T08:39:53.848Z,6.60
2023-04-18T08:42:41.562Z,7.47
2023-04-18T08:45:28.814Z,6.33
2023-04-18T08:48:16.318Z,8.70
2023-04-18T08:51:03.102Z,4.83
2023-04-18T08:53:50.679Z,5.43
2023-04-18T08:56:38.875Z,5.23
2023-04-18T08:59:25.417Z,8.93
2023-04-18T09:02:12.539Z,6.00
2023-04-18T09:04:59.721Z,6.60
2023-04-18T09:07:46.647Z,5.03
2023-04-18T09:10:38.417Z,6.60
2023-04-18T09:13:39.686Z,5.67
2023-04-18T09:16:28.214Z,5.80
2023-04-18T09:19:19.088Z,6.33
2023-04-18T09:22:06.219Z,6.77
2023-04-18T09:24:55.531Z,8.17
2023-04-18T09:27:42.283Z,6.47
2023-04-18T09:30:39.726Z,4.20
2023-04-18T09:33:29.299Z,4.93
2023-04-18T09:36:20.212Z,4.50
2023-04-18T09:39:07.059Z,5.73
2023-04-18T09:41:59.034Z,8.03
2023-04-18T09:44:59.528Z,12.83
2023-04-18T09:47:46.109Z,6.90
2023-04-18T09:50:34.637Z,5.13
2023-04-18T09:53:21.435Z,4.80
2023-04-18T09:56:08.852Z,4.33
2023-04-18T09:58:57.421Z,5.33
2023-04-18T10:01:47.462Z,3.73
2023-04-18T10:04:34.542Z,4.17
2023-04-18T10:07:22.158Z,5.23
2023-04-18T10:10:08.864Z,6.50
2023-04-18T10:12:56.514Z,5.20
2023-04-18T10:15:44.475Z,4.83
2023-04-18T10:18:31.370Z,6.77
2023-04-18T10:21:18.105Z,4.77
2023-04-18T10:24:07.489Z,5.50
2023-04-18T10:26:54.581Z,6.70
2023-04-18T10:29:51.141Z,5.00
2023-04-18T10:32:37.477Z,5.23
2023-04-18T10:35:23.945Z,8.77
2023-04-18T10:38:17.365Z,4.43
2023-04-18T10:41:18.802Z,4.70
2023-04-18T10:44:13.241Z,5.97
2023-04-18T10:47:27.041Z,5.03
2023-04-18T10:50:14.122Z,4.90
2023-04-18T10:53:00.918Z,4.43
2023-04-18T10:55:49.855Z,7.87
2023-04-18T10:58:37.936Z,7.13
2023-04-18T11:01:31.045Z,5.90
2023-04-18T11:04:19.026Z,5.60
2023-04-18T11:07:06.199Z,5.20
2023-04-18T11:09:53.198Z,9.13
2023-04-18T11:12:40.045Z,5.77
2023-04-18T11:15:29.696Z,4.30
2023-04-18T11:18:17.367Z,7.37
2023-04-18T11:21:04.028Z,7.17
2023-04-18T11:23:50.457Z,10.63
2023-04-18T11:26:39.287Z,6.73
2023-04-18T11:29:25.537Z,5.27
2023-04-18T11:32:13.309Z,4.87
2023-04-18T11:34:59.692Z,6.50
2023-04-18T11:37:46.542Z,4.93
2023-04-18T11:40:34.978Z,8.03
2023-04-18T11:43:22.134Z,5.70
2023-04-18T11:46:08.708Z,5.47
2023-04-18T11:48:56.368Z,5.50
2023-04-18T11:51:46.301Z,6.03
2023-04-18T11:54:42.870Z,5.67
2023-04-18T11:57:29.745Z,6.40
2023-04-18T12:00:16.703Z,6.50
2023-04-18T12:03:04.520Z,7.10
2023-04-18T12:05:59.328Z,5.87
2023-04-18T12:08:46.323Z,6.10
2023-04-18T12:11:32.420Z,11.03
2023-04-18T12:14:22.624Z,9.93
2023-04-18T12:17:09.166Z,7.83
2023-04-18T12:19:55.816Z,8.23
2023-04-18T12:22:45.056Z,7.90
2023-04-18T12:25:31.803Z,8.03
2023-04-18T12:28:19.964Z,6.90
2023-04-18T12:31:07.384Z,8.43
2023-04-18T12:33:54.498Z,10.23
2023-04-18T12:36:41.034Z,7.37
2023-04-18T12:39:28.817Z,6.60
2023-04-18T12:42:15.124Z,8.53
2023-04-18T12:45:03.435Z,9.50
2023-04-18T12:47:50.927Z,9.67
2023-04-18T12:50:37.414Z,9.57
2023-04-18T12:53:24.002Z,7.37
2023-04-18T12:56:12.358Z,7.30
2023-04-18T12:58:58.599Z,8.97
2023-04-18T13:01:45.041Z,8.77
2023-04-18T13:04:31.714Z,8.80
2023-04-18T13:07:18.549Z,8.20
2023-04-18T13:10:05.532Z,7.37
2023-04-18T13:12:53.692Z,9.87
2023-04-18T13:15:40.101Z,9.57
2023-04-18T13:18:26.211Z,10.87
2023-04-18T13:21:12.800Z,8.70
2023-04-18T13:23:58.873Z,6.13
2023-04-18T13:26:45.426Z,9.27
2023-04-18T13:29:33.460Z,20.47
2023-04-18T13:32:19.904Z,6.20
2023-04-18T13:35:08.368Z,7.53
2023-04-18T13:37:54.869Z,6.57
2023-04-18T13:40:41.596Z,6.77
2023-04-18T13:43:27.686Z,7.67
2023-04-18T13:46:15.811Z,6.60
2023-04-18T13:49:02.327Z,5.07
2023-04-18T13:51:49.828Z,5.37
2023-04-18T13:54:37.314Z,6.97
2023-04-18T13:57:24.214Z,13.33
2023-04-18T14:00:13.753Z,6.10
2023-04-18T14:03:01.721Z,7.87
2023-04-18T14:05:48.295Z,14.43
2023-04-18T14:08:35.027Z,10.27
2023-04-18T14:11:21.478Z,37.80
2023-04-18T14:14:08.173Z,28.23
2023-04-18T14:16:54.712Z,17.00
2023-04-18T14:19:42.830Z,9.70
2023-04-18T14:22:29.207Z,7.33
2023-04-18T14:25:17.073Z,7.13
2023-04-18T14:28:07.937Z,9.90
2023-04-18T14:30:57.644Z,10.97
2023-04-18T14:33:44.848Z,6.37
2023-04-18T14:36:32.968Z,9.43
2023-04-18T14:39:19.356Z,8.67
2023-04-18T14:42:05.856Z,8.23
2023-04-18T14:44:52.076Z,10.03
2023-04-18T14:47:39.253Z,12.40
2023-04-18T14:50:25.817Z,12.63
2023-04-18T14:53:13.898Z,12.90
2023-04-18T14:56:00.685Z,12.70
2023-04-18T14:58:47.013Z,15.50
2023-04-18T15:01:33.655Z,11.97
2023-04-18T15:04:21.315Z,11.10
2023-04-18T15:07:08.350Z,13.20
2023-04-18T15:09:56.127Z,15.73
2023-04-18T15:12:42.805Z,10.83
2023-04-18T15:15:30.670Z,10.33
2023-04-18T15:18:16.899Z,9.23
2023-04-18T15:21:03.459Z,12.23
2023-04-18T15:23:50.019Z,8.53
2023-04-18T15:26:38.081Z,11.30
2023-04-18T15:29:24.718Z,8.90
2023-04-18T15:32:11.575Z,11.07
2023-04-18T15:34:57.843Z,7.37
2023-04-18T15:37:44.286Z,10.43
2023-04-18T15:40:31.339Z,6.37
2023-04-18T15:43:19.420Z,9.53
2023-04-18T15:46:06.303Z,9.97
2023-04-18T15:48:52.866Z,8.63
2023-04-18T15:51:39.375Z,8.20
2023-04-18T15:54:25.380Z,8.00
2023-04-18T15:57:12.120Z,7.47
2023-04-18T15:59:59.843Z,10.13
2023-04-18T16:02:46.617Z,9.80
2023-04-18T16:05:32.963Z,8.57
2023-04-18T16:08:19.733Z,6.67
2023-04-18T16:11:06.312Z,10.20
2023-04-18T16:13:53.157Z,6.97
2023-04-18T16:16:40.736Z,8.03
2023-04-18T16:19:27.303Z,7.87
2023-04-18T16:22:15.095Z,9.67
2023-04-18T16:25:01.906Z,8.87
2023-04-18T16:27:48.093Z,8.57
2023-04-18T16:30:34.557Z,11.10
2023-04-18T16:33:25.855Z,9.80
2023-04-18T16:36:12.785Z,11.83
2023-04-18T16:38:59.058Z,8.60
2023-04-18T16:41:45.551Z,13.37
2023-04-18T16:44:32.707Z,11.10
2023-04-18T16:47:19.309Z,10.40
2023-04-18T16:50:08.169Z,14.87
2023-04-18T16:52:54.955Z,17.50
2023-04-18T16:55:42.002Z,10.97
2023-04-18T16:58:28.290Z,22.63
2023-04-18T17:01:14.861Z,15.13
2023-04-18T17:04:01.316Z,13.87
2023-04-18T17:06:50.959Z,15.03
2023-04-18T17:09:38.421Z,11.03
2023-04-18T17:12:24.934Z,12.60
2023-04-18T17:15:11.672Z,12.10
2023-04-18T17:18:00.398Z,9.83
2023-04-18T17:20:47.141Z,10.07
2023-04-18T17:23:35.031Z,9.47
2023-04-18T17:26:21.552Z,9.83
2023-04-18T17:29:08.762Z,10.20
2023-04-18T17:31:55.358Z,9.83
2023-04-18T17:34:41.642Z,11.40
2023-04-18T17:37:28.059Z,8.50
2023-04-18T17:40:16.047Z,9.27
2023-04-18T17:43:02.251Z,9.13
2023-04-18T17:45:48.766Z,7.90
2023-04-18T17:48:35.271Z,8.87
2023-04-18T17:51:21.658Z,10.20
2023-04-18T17:54:08.227Z,8.73
2023-04-18T17:56:56.793Z,8.83
2023-04-18T17:59:43.091Z,10.27
2023-04-18T18:02:29.812Z,12.47
2023-04-18T18:05:16.701Z,10.90
2023-04-18T18:08:03.246Z,9.80
2023-04-18T18:10:50.233Z,13.33
2023-04-18T18:13:38.951Z,10.17
2023-04-18T18:16:25.422Z,11.13
2023-04-18T18:19:12.068Z,11.23
2023-04-18T18:21:58.745Z,9.70
2023-04-18T18:24:45.201Z,11.90
2023-04-18T18:27:31.818Z,12.60
2023-04-18T18:30:20.496Z,10.10
2023-04-18T18:33:07.026Z,10.40
2023-04-18T18:35:53.682Z,10.50
2023-04-18T18:38:40.228Z,11.90
2023-04-18T18:41:26.549Z,12.80
2023-04-18T18:44:13.093Z,10.23
2023-04-18T18:47:01.510Z,14.97
2023-04-18T18:49:48.793Z,12.13
2023-04-18T18:52:35.117Z,15.80
2023-04-18T18:55:21.447Z,12.87
2023-04-18T18:58:08.370Z,17.90
2023-04-18T19:00:54.612Z,13.73
2023-04-18T19:03:42.647Z,12.40
2023-04-18T19:06:29.415Z,17.67
2023-04-18T19:09:16.140Z,17.43
2023-04-18T19:12:02.563Z,16.63
2023-04-18T19:14:50.374Z,14.67
2023-04-18T19:17:36.805Z,14.63
2023-04-18T19:20:24.706Z,13.60
2023-04-18T19:23:11.082Z,11.27
2023-04-18T19:25:57.909Z,12.37
2023-04-18T19:28:44.354Z,10.77
2023-04-18T19:31:30.949Z,16.50
2023-04-18T19:34:18.961Z,15.17
2023-04-18T19:37:06.656Z,12.43
2023-04-18T19:39:53.140Z,13.33
2023-04-18T19:42:39.629Z,11.63
2023-04-18T19:45:26.043Z,12.17
2023-04-18T19:48:12.566Z,14.50
2023-04-18T19:50:58.852Z,16.77
2023-04-18T19:53:46.622Z,16.00
2023-04-18T19:56:33.058Z,25.33
2023-04-18T19:59:19.544Z,15.53
2023-04-18T20:02:06.528Z,14.70
2023-04-18T20:04:53.362Z,13.87
2023-04-18T20:07:39.908Z,15.60
2023-04-18T20:10:27.786Z,14.27
2023-04-18T20:13:14.105Z,16.77
2023-04-18T20:16:01.112Z,12.27
2023-04-18T20:18:49.320Z,12.07
2023-04-18T20:21:35.800Z,14.50
2023-04-18T20:24:22.349Z,9.37
2023-04-18T20:27:10.029Z,11.90
2023-04-18T20:29:57.328Z,10.87
2023-04-18T20:32:44.318Z,9.53
2023-04-18T20:35:31.583Z,11.57
2023-04-18T20:38:20.172Z,10.77
2023-04-18T20:41:10.717Z,11.10
2023-04-18T20:44:00.103Z,11.63
2023-04-18T20:46:46.701Z,11.20
2023-04-18T20:49:34.087Z,10.83
2023-04-18T20:52:20.250Z,8.57
2023-04-18T20:55:06.809Z,8.10
2023-04-18T20:57:53.494Z,9.07
2023-04-18T21:00:42.463Z,8.70
2023-04-18T21:03:29.245Z,7.87
2023-04-18T21:06:15.495Z,8.97
2023-04-18T21:09:01.845Z,11.33
2023-04-18T21:11:48.374Z,14.07
2023-04-18T21:14:34.863Z,12.73
2023-04-18T21:17:22.541Z,10.60
2023-04-18T21:20:09.705Z,10.30
2023-04-18T21:22:56.329Z,11.73
2023-04-18T21:25:42.773Z,8.83
2023-04-18T21:28:29.210Z,13.10
2023-04-18T21:31:15.789Z,11.47
2023-04-18T21:34:04.447Z,11.00
2023-04-18T21:36:50.666Z,10.10
2023-04-18T21:39:38.191Z,13.63
2023-04-18T21:42:25.008Z,10.13
2023-04-18T21:45:12.085Z,9.73
2023-04-18T21:47:58.792Z,10.93
2023-04-18T21:50:46.453Z,9.53
2023-04-18T21:53:32.777Z,8.83
2023-04-18T21:56:20.251Z,7.53
2023-04-18T21:59:06.819Z,10.87
2023-04-18T22:04:57.071Z,10.67
2023-04-18T22:07:54.975Z,10.93
2023-04-18T22:10:44.863Z,14.40
2023-04-18T22:13:33.036Z,13.20
2023-04-18T22:16:21.909Z,12.87
2023-04-18T22:19:09.132Z,12.37
2023-04-18T22:21:55.453Z,9.67
2023-04-18T22:24:44.944Z,12.73
2023-04-18T22:27:32.380Z,13.43
2023-04-18T22:30:18.601Z,14.43
2023-04-18T22:33:05.264Z,16.27
2023-04-18T22:35:51.952Z,10.57
2023-04-18T22:38:38.246Z,12.90
2023-04-18T22:41:26.066Z,12.57
2023-04-18T22:44:12.638Z,13.47
2023-04-18T22:46:59.066Z,12.90
2023-04-18T22:49:46.002Z,13.90
2023-04-18T22:52:32.581Z,11.10
2023-04-18T22:55:19.995Z,9.23
2023-04-18T22:58:07.846Z,14.33
2023-04-18T23:00:54.416Z,14.70
2023-04-18T23:03:40.868Z,11.47
2023-04-18T23:06:28.360Z,11.60
2023-04-18T23:09:16.615Z,9.40
2023-04-18T23:12:03.539Z,12.27
2023-04-18T23:14:51.433Z,13.27
2023-04-18T23:17:37.841Z,10.77
2023-04-18T23:20:25.035Z,9.53
2023-04-18T23:23:11.826Z,11.27
2023-04-18T23:25:58.031Z,9.83
2023-04-18T23:28:44.777Z,8.53
2023-04-18T23:31:33.906Z,9.57
2023-04-18T23:34:20.154Z,9.70
2023-04-18T23:37:06.439Z,9.40
2023-04-18T23:39:53.295Z,9.60
2023-04-18T23:42:39.661Z,9.97
2023-04-18T23:45:26.200Z,8.80
2023-04-18T23:48:14.164Z,9.97
2023-04-18T23:51:00.552Z,8.53
2023-04-18T23:53:46.756Z,13.10
2023-04-18T23:56:33.478Z,10.90
2023-04-18T23:59:19.916Z,10.13
